Time;durP1;ratioP1;P1;durP2;ratioP2;P2;SDS_P1;SDS_P2;PMS_P1;PMS_P2;Temp;Humidity;BMP_temperature;BMP_pressure;BME280_temperature;BME280_humidity;BME280_pressure;Samples;Min_cycle;Max_cycle;Signal;HPM_P1;HPM_P2
2022/04/04 00:01:51;;;;;;;16.50;11.35;;;1.70;99.90;;;;;;5074037;28;20234;-69
2022/04/04 00:04:18;;;;;;;15.98;10.70;;;1.70;99.90;;;;;;5073555;28;20202;-68
2022/04/04 00:06:45;;;;;;;15.98;12.05;;;1.70;99.90;;;;;;5073879;28;20576;-68
2022/04/04 00:09:12;;;;;;;15.25;11.10;;;1.60;99.90;;;;;;5073881;28;20226;-69
2022/04/04 00:11:39;;;;;;;16.27;11.20;;;1.60;99.90;;;;;;5073868;28;20203;-68
2022/04/04 00:14:06;;;;;;;15.50;11.90;;;1.50;99.90;;;;;;5073730;28;20664;-68
2022/04/04 00:16:33;;;;;;;15.30;12.15;;;1.50;99.90;;;;;;5073660;28;20665;-69
2022/04/04 00:19:01;;;;;;;16.88;11.82;;;1.50;99.90;;;;;;5073755;28;20234;-68
2022/04/04 00:21:29;;;;;;;17.35;11.10;;;1.50;99.90;;;;;;5073541;28;20298;-69
2022/04/04 00:23:55;;;;;;;14.40;10.90;;;1.50;99.90;;;;;;5073446;28;20199;-68
2022/04/04 00:26:22;;;;;;;16.35;11.73;;;1.50;99.90;;;;;;5073738;28;20584;-69
2022/04/04 00:28:49;;;;;;;13.38;10.25;;;1.40;99.90;;;;;;5073408;28;20218;-69
2022/04/04 00:31:17;;;;;;;17.23;10.88;;;1.40;99.90;;;;;;5073681;28;20202;-68
2022/04/04 00:33:43;;;;;;;16.95;10.88;;;1.30;99.90;;;;;;5073246;28;20198;-68
2022/04/04 00:36:12;;;;;;;14.02;10.52;;;1.30;99.90;;;;;;5073697;28;20207;-68
2022/04/04 00:38:39;;;;;;;11.98;9.85;;;1.30;99.90;;;;;;5073415;28;20560;-69
2022/04/04 00:41:08;;;;;;;14.68;10.40;;;1.30;99.90;;;;;;5073604;28;20198;-68
2022/04/04 00:43:35;;;;;;;15.95;11.05;;;1.30;99.90;;;;;;5073276;28;20289;-68
2022/04/04 00:46:02;;;;;;;19.42;11.90;;;1.30;99.90;;;;;;5073361;28;20202;-68
2022/04/04 00:48:29;;;;;;;13.80;10.60;;;1.30;99.90;;;;;;5073284;28;20227;-69
2022/04/04 00:50:56;;;;;;;14.40;10.82;;;1.30;99.90;;;;;;5073431;28;20309;-68
2022/04/04 00:53:26;;;;;;;12.75;10.00;;;1.30;99.90;;;;;;5073298;28;20203;-68
2022/04/04 00:55:53;;;;;;;12.48;10.13;;;1.30;99.90;;;;;;5073457;28;20668;-68
2022/04/04 00:58:21;;;;;;;15.20;10.45;;;1.30;99.90;;;;;;5073383;28;20194;-68
2022/04/04 01:00:49;;;;;;;14.75;10.65;;;1.30;99.90;;;;;;5073049;28;20734;-68
2022/04/04 01:03:16;;;;;;;16.08;11.32;;;1.30;99.90;;;;;;5073044;28;20668;-69
2022/04/04 01:05:44;;;;;;;13.95;12.02;;;1.30;99.90;;;;;;5073233;28;20202;-69
2022/04/04 01:08:13;;;;;;;17.67;11.38;;;1.30;99.90;;;;;;5076232;28;20227;-68
2022/04/04 01:10:42;;;;;;;14.48;10.60;;;1.30;99.90;;;;;;5077281;28;20222;-68
2022/04/04 01:13:10;;;;;;;15.27;10.75;;;1.20;99.90;;;;;;5077096;28;20213;-68
2022/04/04 01:15:38;;;;;;;13.77;10.05;;;1.30;99.90;;;;;;5077171;28;20297;-68
2022/04/04 01:18:05;;;;;;;14.68;11.25;;;1.30;99.90;;;;;;5077127;28;20300;-68
2022/04/04 01:20:33;;;;;;;15.70;10.70;;;1.40;99.90;;;;;;5076743;28;20225;-68
2022/04/04 01:23:00;;;;;;;14.43;10.02;;;1.40;99.90;;;;;;5076701;28;20665;-68
2022/04/04 01:25:30;;;;;;;12.48;9.80;;;1.40;99.90;;;;;;5077031;28;20199;-68
2022/04/04 01:27:57;;;;;;;15.00;11.45;;;1.40;99.90;;;;;;5076652;28;20233;-68
2022/04/04 01:30:25;;;;;;;15.98;10.45;;;1.30;99.90;;;;;;5076787;28;20222;-68
2022/04/04 01:32:52;;;;;;;12.45;9.90;;;1.30;99.90;;;;;;5076877;28;20206;-68
2022/04/04 01:35:19;;;;;;;14.82;10.55;;;1.30;99.90;;;;;;5076673;28;20198;-68
2022/04/04 01:37:46;;;;;;;13.82;10.63;;;1.30;99.90;;;;;;5076714;28;20211;-68
2022/04/04 01:40:14;;;;;;;13.82;10.45;;;1.20;99.90;;;;;;5076793;28;20231;-68
2022/04/04 01:42:42;;;;;;;18.00;11.25;;;1.00;99.90;;;;;;5076665;28;20260;-68
2022/04/04 01:45:11;;;;;;;14.15;10.85;;;0.90;99.90;;;;;;5076472;28;20289;-68
2022/04/04 01:47:38;;;;;;;14.05;11.13;;;0.90;99.90;;;;;;5076508;28;20269;-69
2022/04/04 01:50:07;;;;;;;16.58;10.70;;;0.90;99.90;;;;;;5076553;28;20298;-68
2022/04/04 01:52:33;;;;;;;15.90;11.13;;;1.00;99.90;;;;;;5076772;28;20230;-68
2022/04/04 01:55:00;;;;;;;16.15;11.68;;;1.00;99.90;;;;;;5076168;28;20728;-68
2022/04/04 01:57:27;;;;;;;13.80;10.70;;;1.00;99.90;;;;;;5076415;28;20289;-68
2022/04/04 01:59:55;;;;;;;15.07;11.07;;;1.00;99.90;;;;;;5076159;28;20223;-68
2022/04/04 02:02:22;;;;;;;13.20;10.65;;;1.00;99.90;;;;;;5076323;28;20230;-68
2022/04/04 02:04:49;;;;;;;14.63;11.18;;;1.10;99.90;;;;;;5075931;28;20748;-68
2022/04/04 02:07:16;;;;;;;16.17;12.18;;;1.10;99.90;;;;;;5076025;28;20690;-68
2022/04/04 02:09:42;;;;;;;17.42;12.57;;;1.10;99.90;;;;;;5075914;28;20309;-69
2022/04/04 02:12:11;;;;;;;14.70;11.75;;;1.00;99.90;;;;;;5076211;28;20289;-69
2022/04/04 02:14:38;;;;;;;16.08;11.32;;;1.00;99.90;;;;;;5075756;28;20209;-68
2022/04/04 02:17:07;;;;;;;15.43;11.98;;;1.00;99.90;;;;;;5076053;28;20209;-69
2022/04/04 02:19:33;;;;;;;14.05;11.05;;;0.90;99.90;;;;;;5075299;28;20223;-68
2022/04/04 02:22:00;;;;;;;14.75;10.32;;;0.90;99.90;;;;;;5076026;28;20566;-68
2022/04/04 02:24:27;;;;;;;15.32;10.07;;;0.90;99.90;;;;;;5075607;28;20209;-68
2022/04/04 02:26:54;;;;;;;14.63;10.18;;;0.80;99.90;;;;;;5075735;28;20212;-69
2022/04/04 02:29:21;;;;;;;14.88;10.10;;;0.80;99.90;;;;;;5075818;28;20238;-68
2022/04/04 02:31:47;;;;;;;16.58;11.80;;;0.80;99.90;;;;;;5075833;28;20199;-68
2022/04/04 02:34:15;;;;;;;14.00;10.55;;;0.70;99.90;;;;;;5075814;28;20289;-68
2022/04/04 02:36:42;;;;;;;12.38;9.20;;;0.80;99.90;;;;;;5075776;28;20205;-68
2022/04/04 02:39:09;;;;;;;13.68;9.15;;;0.80;99.90;;;;;;5075525;28;20221;-69
2022/04/04 02:41:36;;;;;;;16.52;10.05;;;0.70;99.90;;;;;;5075591;28;20298;-68
2022/04/04 02:44:03;;;;;;;13.50;10.00;;;0.70;99.90;;;;;;5075423;28;20213;-68
2022/04/04 02:46:30;;;;;;;16.98;11.10;;;0.70;99.90;;;;;;5075293;28;20294;-68
2022/04/04 02:48:56;;;;;;;12.95;9.60;;;0.70;99.90;;;;;;5075358;28;20239;-68
2022/04/04 02:51:25;;;;;;;15.15;10.10;;;0.70;99.90;;;;;;5075457;28;20202;-68
2022/04/04 02:53:51;;;;;;;14.18;10.88;;;0.70;99.90;;;;;;5075062;28;20202;-68
2022/04/04 02:56:29;;;;;;;13.63;10.13;;;0.70;99.90;;;;;;5075373;28;20289;-68
2022/04/04 02:58:58;;;;;;;14.65;10.48;;;0.70;99.90;;;;;;5075127;28;20245;-68
2022/04/04 03:01:24;;;;;;;10.38;9.30;;;0.70;99.90;;;;;;5075260;28;20205;-68
2022/04/04 03:03:51;;;;;;;15.50;10.30;;;0.70;99.90;;;;;;5074780;28;20687;-69
2022/04/04 03:06:18;;;;;;;12.80;9.43;;;0.70;99.90;;;;;;5075376;28;20210;-68
2022/04/04 03:08:46;;;;;;;15.60;10.90;;;0.70;99.90;;;;;;5074813;28;20233;-68
2022/04/04 03:11:14;;;;;;;16.02;10.70;;;0.60;99.90;;;;;;5074740;28;20298;-68
2022/04/04 03:13:40;;;;;;;14.07;10.82;;;0.50;99.90;;;;;;5074536;28;20229;-68
2022/04/04 03:16:07;;;;;;;14.65;10.40;;;0.50;99.90;;;;;;5074904;28;20309;-68
2022/04/04 03:18:35;;;;;;;15.57;10.85;;;0.50;99.90;;;;;;5074766;28;20289;-68
2022/04/04 03:21:03;;;;;;;15.10;10.70;;;0.50;99.90;;;;;;5074781;28;20285;-68
2022/04/04 03:23:30;;;;;;;13.55;10.30;;;0.50;99.90;;;;;;5074551;28;20669;-68
2022/04/04 03:25:58;;;;;;;16.38;11.48;;;0.50;99.90;;;;;;5074663;28;20209;-68
2022/04/04 03:28:26;;;;;;;17.48;11.52;;;0.40;99.90;;;;;;5074463;28;20222;-68
2022/04/04 03:30:53;;;;;;;17.70;11.98;;;0.50;99.90;;;;;;5074442;28;20234;-68
2022/04/04 03:33:21;;;;;;;15.15;11.15;;;0.50;99.90;;;;;;5074395;28;20205;-68
2022/04/04 03:35:48;;;;;;;17.75;11.60;;;0.50;99.90;;;;;;5074491;28;20272;-68
2022/04/04 03:38:17;;;;;;;16.98;11.65;;;0.60;99.90;;;;;;5074558;28;20344;-68
2022/04/04 03:40:45;;;;;;;12.63;10.50;;;0.60;99.90;;;;;;5074456;28;20317;-68
2022/04/04 03:43:14;;;;;;;15.27;11.10;;;0.60;99.90;;;;;;5074241;28;20213;-68
2022/04/04 03:45:40;;;;;;;15.18;10.73;;;0.60;99.90;;;;;;5074329;28;20203;-68
2022/04/04 03:48:08;;;;;;;13.48;10.73;;;0.60;99.90;;;;;;5074186;28;20227;-68
2022/04/04 03:50:35;;;;;;;13.80;9.70;;;0.60;99.90;;;;;;5074256;28;20584;-68
2022/04/04 03:53:02;;;;;;;17.02;11.20;;;0.50;99.90;;;;;;5074046;28;20221;-68
2022/04/04 03:55:32;;;;;;;15.15;11.15;;;0.50;99.90;;;;;;5074025;28;20657;-68
2022/04/04 03:58:00;;;;;;;14.50;10.35;;;0.40;99.90;;;;;;5074119;28;20578;-68
2022/04/04 04:00:29;;;;;;;16.08;10.65;;;0.50;99.90;;;;;;5073880;28;20777;-68
2022/04/04 04:02:56;;;;;;;17.20;11.43;;;0.50;99.90;;;;;;5074041;28;20214;-68
2022/04/04 04:05:23;;;;;;;16.75;12.38;;;0.60;99.90;;;;;;5074010;28;20615;-68
2022/04/04 04:07:51;;;;;;;15.50;11.55;;;0.60;99.90;;;;;;5073790;28;20203;-68
2022/04/04 04:10:18;;;;;;;17.60;12.60;;;0.50;99.90;;;;;;5073881;28;20222;-68
2022/04/04 04:12:45;;;;;;;15.50;11.63;;;0.30;99.90;;;;;;5073933;28;20211;-68
2022/04/04 04:15:14;;;;;;;15.18;11.57;;;0.30;99.90;;;;;;5073855;28;20202;-68
2022/04/04 04:17:43;;;;;;;17.35;12.10;;;0.20;99.90;;;;;;5074745;28;20207;-68
2022/04/04 04:20:20;;;;;;;16.00;12.30;;;0.20;99.90;;;;;;5073471;28;20219;-68
2022/04/04 04:22:47;;;;;;;16.50;12.98;;;0.20;99.90;;;;;;5073829;28;20202;-68
2022/04/04 04:25:15;;;;;;;17.60;12.55;;;0.30;99.90;;;;;;5073594;28;20203;-68
2022/04/04 04:27:42;;;;;;;15.18;11.40;;;0.30;99.90;;;;;;5073603;28;20244;-68
2022/04/04 04:30:10;;;;;;;17.45;12.00;;;0.30;99.90;;;;;;5073273;28;20226;-68
2022/04/04 04:32:37;;;;;;;18.33;12.73;;;0.20;99.90;;;;;;5074067;28;20209;-68
2022/04/04 04:35:06;;;;;;;16.55;12.75;;;0.20;99.90;;;;;;5073555;28;20294;-68
2022/04/04 04:37:33;;;;;;;18.58;12.82;;;0.20;99.90;;;;;;5073494;28;20207;-68
2022/04/04 04:40:00;;;;;;;18.27;12.73;;;0.00;99.90;;;;;;5073456;28;20226;-68
2022/04/04 04:42:27;;;;;;;19.50;12.60;;;0.10;99.90;;;;;;5073127;28;20206;-69
2022/04/04 04:44:54;;;;;;;16.95;11.73;;;0.20;99.90;;;;;;5073188;28;20212;-68
2022/04/04 04:47:21;;;;;;;15.98;12.20;;;0.30;99.90;;;;;;5073531;28;20229;-68
2022/04/04 04:49:48;;;;;;;19.15;14.00;;;0.40;99.90;;;;;;5073352;28;20241;-68
2022/04/04 04:52:17;;;;;;;16.88;12.95;;;0.30;99.90;;;;;;5073534;28;20244;-68
2022/04/04 04:54:44;;;;;;;16.20;12.20;;;0.30;99.90;;;;;;5073016;28;20205;-68
2022/04/04 04:57:11;;;;;;;23.95;13.60;;;0.30;99.90;;;;;;5073294;28;20669;-68
2022/04/04 04:59:37;;;;;;;14.63;11.48;;;0.30;99.90;;;;;;5073358;28;20248;-68
2022/04/04 05:02:05;;;;;;;16.88;12.32;;;0.30;99.90;;;;;;5073382;28;20629;-68
2022/04/04 05:04:32;;;;;;;16.80;12.05;;;0.30;99.90;;;;;;5073176;28;20560;-68
2022/04/04 05:06:58;;;;;;;16.35;12.30;;;0.40;99.90;;;;;;5073226;28;20298;-69
2022/04/04 05:09:27;;;;;;;13.60;10.43;;;0.30;99.90;;;;;;5073267;28;20719;-68
2022/04/04 05:11:54;;;;;;;17.20;11.23;;;0.30;99.90;;;;;;5073432;28;20298;-68
2022/04/04 05:14:21;;;;;;;15.77;11.13;;;0.20;99.90;;;;;;5073078;28;20214;-69
2022/04/04 05:16:48;;;;;;;18.65;12.00;;;0.00;99.90;;;;;;5073040;28;20270;-68
2022/04/04 05:19:19;;;;;;;18.58;12.15;;;0.00;99.90;;;;;;5073065;28;20215;-69
2022/04/04 05:21:46;;;;;;;17.70;11.68;;;0.00;99.90;;;;;;5072966;28;20657;-68
2022/04/04 05:24:13;;;;;;;18.70;12.48;;;0.00;99.90;;;;;;5072757;28;20205;-69
2022/04/04 05:26:42;;;;;;;16.40;12.48;;;0.10;99.90;;;;;;5073728;28;20659;-68
2022/04/04 05:29:09;;;;;;;16.25;11.63;;;0.30;99.90;;;;;;5072983;28;20226;-69
2022/04/04 05:31:36;;;;;;;16.85;12.23;;;0.30;99.90;;;;;;5073145;28;20294;-68
2022/04/04 05:34:05;;;;;;;14.45;11.93;;;0.30;99.90;;;;;;5072807;28;20202;-68
2022/04/04 05:36:33;;;;;;;17.23;11.40;;;0.20;99.90;;;;;;5072961;28;20203;-69
2022/04/04 05:39:00;;;;;;;16.55;11.23;;;0.10;99.90;;;;;;5072660;28;20314;-69
2022/04/04 05:41:28;;;;;;;16.20;11.30;;;0.10;99.90;;;;;;5072778;28;20669;-69
2022/04/04 05:43:56;;;;;;;17.15;10.80;;;0.00;99.90;;;;;;5072701;28;20218;-68
2022/04/04 05:46:23;;;;;;;18.52;11.60;;;-0.10;99.90;;;;;;5072980;28;20203;-69
2022/04/04 05:48:50;;;;;;;15.52;11.13;;;-0.10;99.90;;;;;;5072751;28;20222;-69
2022/04/04 05:51:18;;;;;;;23.13;15.30;;;-0.10;99.90;;;;;;5072882;28;20207;-68
2022/04/04 05:53:45;;;;;;;16.58;13.32;;;-0.10;99.90;;;;;;5073279;28;20234;-68
2022/04/04 05:56:12;;;;;;;19.13;13.27;;;0.00;99.90;;;;;;5076492;28;20289;-69
2022/04/04 05:58:40;;;;;;;16.88;12.98;;;0.10;99.90;;;;;;5076649;28;20281;-69
2022/04/04 06:01:09;;;;;;;19.45;14.93;;;0.20;99.90;;;;;;5076153;28;20750;-68
2022/04/04 06:03:36;;;;;;;20.25;14.27;;;0.30;99.90;;;;;;5076023;28;20205;-69
2022/04/04 06:06:03;;;;;;;18.27;13.88;;;0.30;99.90;;;;;;5076264;28;20208;-69
2022/04/04 06:08:30;;;;;;;18.58;13.18;;;0.30;99.90;;;;;;5076322;28;20203;-69
2022/04/04 06:10:57;;;;;;;18.48;12.80;;;0.20;99.90;;;;;;5076252;28;20268;-69
2022/04/04 06:13:24;;;;;;;17.02;12.93;;;0.20;99.90;;;;;;5075979;28;20210;-69
2022/04/04 06:15:51;;;;;;;20.27;14.50;;;0.20;99.90;;;;;;5076043;28;20297;-69
2022/04/04 06:18:19;;;;;;;18.48;13.50;;;0.10;99.90;;;;;;5075994;28;20209;-69
2022/04/04 06:20:46;;;;;;;17.13;13.02;;;0.30;99.90;;;;;;5076027;28;20329;-69
2022/04/04 06:23:12;;;;;;;18.25;13.07;;;0.50;99.90;;;;;;5075980;28;20202;-68
2022/04/04 06:25:41;;;;;;;18.73;13.30;;;0.60;99.90;;;;;;5075781;28;20207;-69
2022/04/04 06:28:09;;;;;;;18.95;12.57;;;0.70;99.90;;;;;;5075750;28;20218;-69
2022/04/04 06:30:35;;;;;;;21.30;14.40;;;0.70;99.90;;;;;;5075453;28;20693;-69
2022/04/04 06:33:05;;;;;;;17.77;13.20;;;0.70;99.90;;;;;;5075617;28;20198;-68
2022/04/04 06:35:34;;;;;;;19.02;12.63;;;0.80;99.90;;;;;;5075759;28;20615;-69
2022/04/04 06:38:02;;;;;;;16.85;13.27;;;0.80;99.90;;;;;;5075572;28;20203;-69
2022/04/04 06:40:30;;;;;;;15.57;11.85;;;0.80;99.90;;;;;;5075788;28;20259;-68
2022/04/04 06:42:58;;;;;;;16.13;13.00;;;0.80;99.90;;;;;;5075578;28;20203;-69
2022/04/04 06:45:25;;;;;;;18.02;13.05;;;0.80;99.90;;;;;;5075734;28;20202;-68
2022/04/04 06:47:52;;;;;;;18.08;13.05;;;0.80;99.90;;;;;;5075281;28;20207;-68
2022/04/04 06:50:19;;;;;;;21.08;13.20;;;0.80;99.90;;;;;;5075385;28;20241;-69
2022/04/04 06:52:48;;;;;;;17.20;13.10;;;0.90;99.90;;;;;;5075288;28;20260;-69
2022/04/04 06:55:15;;;;;;;15.65;12.15;;;0.80;99.90;;;;;;5075511;28;20205;-68
2022/04/04 06:57:42;;;;;;;15.30;11.75;;;0.80;99.90;;;;;;5075274;28;20225;-69
2022/04/04 07:00:11;;;;;;;17.70;12.82;;;0.80;99.90;;;;;;5075230;28;20608;-69
2022/04/04 07:02:39;;;;;;;16.60;12.27;;;0.90;99.90;;;;;;5075198;28;20214;-69
2022/04/04 07:05:08;;;;;;;17.42;11.82;;;0.90;99.90;;;;;;5074590;28;20256;-68
2022/04/04 07:07:35;;;;;;;15.73;12.65;;;0.90;99.90;;;;;;5075085;28;20203;-68
2022/04/04 07:10:04;;;;;;;16.88;13.32;;;0.90;99.90;;;;;;5075084;28;20226;-69
2022/04/04 07:12:30;;;;;;;17.85;12.95;;;0.90;99.90;;;;;;5075010;28;20206;-68
2022/04/04 07:14:58;;;;;;;19.45;13.35;;;0.90;99.90;;;;;;5074630;28;20293;-68
2022/04/04 07:17:25;;;;;;;16.17;13.40;;;1.00;99.90;;;;;;5074989;28;20252;-68
2022/04/04 07:19:53;;;;;;;17.95;12.13;;;1.10;99.90;;;;;;5074832;28;20310;-69
2022/04/04 07:22:19;;;;;;;19.95;12.55;;;1.10;99.90;;;;;;5074865;28;20288;-68
2022/04/04 07:24:46;;;;;;;16.60;12.30;;;1.20;99.90;;;;;;5074339;28;20205;-69
2022/04/04 07:27:14;;;;;;;15.60;12.55;;;1.30;99.90;;;;;;5074397;28;20216;-69
2022/04/04 07:29:42;;;;;;;17.48;11.55;;;1.50;99.90;;;;;;5074631;28;20227;-69
2022/04/04 07:32:09;;;;;;;14.40;10.45;;;1.70;99.90;;;;;;5074630;28;20203;-68
2022/04/04 07:34:36;;;;;;;16.40;12.10;;;2.00;99.90;;;;;;5074486;28;20232;-68
2022/04/04 07:37:04;;;;;;;16.52;12.90;;;2.20;99.90;;;;;;5074550;28;20298;-69
2022/04/04 07:39:31;;;;;;;15.05;12.27;;;2.40;99.90;;;;;;5074311;28;20222;-69
2022/04/04 07:41:58;;;;;;;14.38;10.98;;;2.50;99.90;;;;;;5074522;28;20209;-69
2022/04/04 07:44:26;;;;;;;11.65;8.93;;;2.50;99.90;;;;;;5074219;28;20203;-69
2022/04/04 07:46:53;;;;;;;11.52;8.60;;;2.70;99.90;;;;;;5074370;28;20298;-69
2022/04/04 07:49:20;;;;;;;12.00;9.50;;;2.80;99.90;;;;;;5074155;28;20258;-69
2022/04/04 07:51:47;;;;;;;11.95;9.05;;;3.00;99.90;;;;;;5074501;28;20585;-69
2022/04/04 07:54:14;;;;;;;9.73;8.45;;;3.10;99.90;;;;;;5073914;28;20615;-68
2022/04/04 07:56:41;;;;;;;12.30;9.10;;;3.30;99.60;;;;;;5074178;28;20625;-69
2022/04/04 07:59:08;;;;;;;10.65;8.55;;;3.50;98.70;;;;;;5074020;28;20222;-69
2022/04/04 08:01:36;;;;;;;10.55;9.20;;;3.60;98.40;;;;;;5073859;28;20677;-69
2022/04/04 08:04:04;;;;;;;13.15;8.93;;;3.70;97.40;;;;;;5073898;28;20290;-69
2022/04/04 08:06:31;;;;;;;10.35;7.78;;;3.80;96.20;;;;;;5073967;28;20202;-68
2022/04/04 08:08:58;;;;;;;10.25;8.25;;;3.80;95.10;;;;;;5073914;28;20598;-68
2022/04/04 08:11:24;;;;;;;10.20;8.40;;;3.80;95.10;;;;;;5074183;28;20222;-69
2022/04/04 08:13:52;;;;;;;9.88;8.25;;;3.90;95.50;;;;;;5073674;28;20206;-68
2022/04/04 08:16:19;;;;;;;11.35;8.32;;;3.90;95.40;;;;;;5073260;28;20211;-68
2022/04/04 08:18:47;;;;;;;10.32;9.00;;;4.00;95.20;;;;;;5073667;28;20206;-69
2022/04/04 08:21:15;;;;;;;12.27;8.80;;;4.10;94.80;;;;;;5073814;28;20199;-69
2022/04/04 08:23:42;;;;;;;11.73;9.48;;;4.10;94.30;;;;;;5073646;28;20205;-68
2022/04/04 08:26:09;;;;;;;10.57;8.27;;;4.10;94.50;;;;;;5073732;28;20210;-69
2022/04/04 08:28:37;;;;;;;11.82;8.75;;;4.20;93.90;;;;;;5073601;28;20579;-69
2022/04/04 08:31:03;;;;;;;11.65;9.15;;;4.30;92.70;;;;;;5073646;28;20226;-69
2022/04/04 08:33:30;;;;;;;10.68;9.57;;;4.30;91.60;;;;;;5073476;28;20199;-68
2022/04/04 08:36:00;;;;;;;11.00;9.35;;;4.40;91.20;;;;;;5073673;28;20230;-69
2022/04/04 08:38:27;;;;;;;11.45;9.73;;;4.60;91.30;;;;;;5073388;28;20203;-69
2022/04/04 08:40:54;;;;;;;12.30;10.18;;;4.80;90.70;;;;;;5073321;28;20788;-68
2022/04/04 08:43:21;;;;;;;13.00;9.95;;;5.00;90.50;;;;;;5073435;28;20210;-68
2022/04/04 08:45:49;;;;;;;11.10;9.43;;;5.10;87.70;;;;;;5073838;28;20198;-68
2022/04/04 08:48:17;;;;;;;10.40;9.30;;;5.10;86.80;;;;;;5073491;28;20207;-69
2022/04/04 08:50:44;;;;;;;12.73;9.70;;;5.10;85.10;;;;;;5073695;28;20237;-68
2022/04/04 08:53:13;;;;;;;10.15;8.95;;;5.10;83.70;;;;;;5073336;28;20202;-68
2022/04/04 08:55:40;;;;;;;10.75;9.45;;;5.10;86.30;;;;;;5073572;28;20213;-68
2022/04/04 08:58:07;;;;;;;13.20;9.05;;;5.20;85.30;;;;;;5073462;28;20320;-68
2022/04/04 09:00:36;;;;;;;9.98;8.35;;;5.30;83.00;;;;;;5073126;28;20225;-68
2022/04/04 09:03:04;;;;;;;9.07;8.13;;;5.50;80.70;;;;;;5073245;28;20207;-68
2022/04/04 09:05:33;;;;;;;10.82;8.55;;;5.70;79.60;;;;;;5073064;28;20209;-69
2022/04/04 09:08:02;;;;;;;14.90;8.65;;;6.00;79.80;;;;;;5073409;28;20208;-69
2022/04/04 09:10:35;;;;;;;10.38;8.32;;;6.30;79.90;;;;;;5073291;28;20626;-69
2022/04/04 09:13:13;;;;;;;9.15;8.25;;;6.50;78.00;;;;;;5073278;28;20213;-68
2022/04/04 09:15:53;;;;;;;9.00;8.10;;;6.70;74.80;;;;;;5073257;28;20206;-69
2022/04/04 09:18:25;;;;;;;9.43;8.43;;;6.90;72.70;;;;;;5073087;28;20202;-69
2022/04/04 09:20:53;;;;;;;8.95;8.02;;;7.00;71.80;;;;;;5073258;28;20626;-69
2022/04/04 09:23:19;;;;;;;11.10;9.57;;;7.00;71.80;;;;;;5073067;28;20293;-68
2022/04/04 09:25:50;;;;;;;8.43;7.53;;;7.00;73.00;;;;;;5073130;28;20203;-69
2022/04/04 09:28:18;;;;;;;11.40;9.35;;;7.00;73.50;;;;;;5074514;28;20542;-69
2022/04/04 09:31:04;;;;;;;12.57;10.00;;;7.00;73.90;;;;;;5076941;28;20237;-69
2022/04/04 09:33:35;;;;;;;9.10;8.20;;;7.10;71.50;;;;;;5076723;28;20206;-69
2022/04/04 09:36:03;;;;;;;9.95;8.75;;;7.20;66.00;;;;;;5076880;28;20202;-69
2022/04/04 09:38:30;;;;;;;9.52;8.45;;;7.50;63.20;;;;;;5077273;28;20260;-69
2022/04/04 09:41:05;;;;;;;9.15;8.25;;;8.00;60.60;;;;;;5076807;28;20584;-69
2022/04/04 09:43:49;;;;;;;8.18;7.38;;;8.80;58.50;;;;;;5076528;28;20202;-69
2022/04/04 09:46:16;;;;;;;10.32;8.55;;;9.40;55.30;;;;;;5076642;28;20199;-69
2022/04/04 09:49:04;;;;;;;8.98;8.05;;;10.00;53.00;;;;;;5076459;28;20264;-69
2022/04/04 09:51:39;;;;;;;8.90;8.10;;;11.00;51.80;;;;;;5076573;28;20211;-69
2022/04/04 09:54:07;;;;;;;9.82;8.93;;;12.10;49.00;;;;;;5076291;28;20214;-69
2022/04/04 09:56:35;;;;;;;9.70;8.80;;;13.10;46.70;;;;;;5076593;28;20210;-69
2022/04/04 09:59:03;;;;;;;10.57;9.52;;;13.90;45.70;;;;;;5076412;28;20232;-69
2022/04/04 10:01:32;;;;;;;9.90;9.00;;;14.90;43.30;;;;;;5076139;28;20210;-69
2022/04/04 10:04:00;;;;;;;10.45;9.55;;;15.20;42.00;;;;;;5076208;28;20317;-69
2022/04/04 10:06:29;;;;;;;10.05;9.15;;;15.60;40.80;;;;;;5076309;28;20208;-69
2022/04/04 10:08:58;;;;;;;9.93;9.00;;;15.70;40.10;;;;;;5076133;28;20202;-69
2022/04/04 10:11:26;;;;;;;9.77;8.77;;;15.70;41.40;;;;;;5076198;28;20232;-69
2022/04/04 10:13:55;;;;;;;9.98;9.02;;;15.60;40.40;;;;;;5075980;28;20213;-69
2022/04/04 10:16:23;;;;;;;9.63;8.82;;;16.00;40.50;;;;;;5076141;28;20214;-70
2022/04/04 10:18:51;;;;;;;10.70;9.75;;;16.00;40.10;;;;;;5076031;28;20213;-70
2022/04/04 10:21:18;;;;;;;10.10;9.20;;;16.00;40.10;;;;;;5076119;28;20205;-70
2022/04/04 10:23:47;;;;;;;10.45;9.55;;;15.80;40.10;;;;;;5075941;28;20302;-69
2022/04/04 10:26:15;;;;;;;10.98;10.07;;;15.10;40.10;;;;;;5075691;28;20580;-69
2022/04/04 10:28:44;;;;;;;11.00;10.00;;;15.60;40.50;;;;;;5083416;28;20225;-69
2022/04/04 10:31:14;;;;;;;10.95;9.95;;;16.30;40.80;;;;;;5074601;28;20650;-69
2022/04/04 10:33:42;;;;;;;11.35;10.25;;;16.30;40.20;;;;;;5074297;28;20268;-69
2022/04/04 10:36:10;;;;;;;11.07;10.00;;;15.40;41.00;;;;;;5074532;28;20206;-69
2022/04/04 10:38:39;;;;;;;9.88;9.02;;;14.30;42.70;;;;;;5074680;28;20215;-69
2022/04/04 10:41:08;;;;;;;11.00;9.70;;;13.90;43.90;;;;;;5073652;28;20658;-69
2022/04/04 10:43:37;;;;;;;10.98;9.73;;;13.60;45.30;;;;;;5074402;28;20212;-70
2022/04/04 10:46:09;;;;;;;11.43;10.32;;;13.90;44.80;;;;;;5073898;28;20503;-67
2022/04/04 10:48:39;;;;;;;12.35;11.18;;;14.00;44.70;;;;;;5074432;28;20201;-67
2022/04/04 10:51:17;;;;;;;10.90;9.55;;;14.00;44.70;;;;;;5074078;28;20230;-67
2022/04/04 10:53:48;;;;;;;10.55;9.55;;;14.10;44.70;;;;;;5074196;28;20209;-67
2022/04/04 10:56:21;;;;;;;10.98;9.65;;;13.80;44.30;;;;;;5074143;28;20202;-67
2022/04/04 10:58:48;;;;;;;11.52;10.48;;;13.40;44.50;;;;;;5074085;28;20207;-66
2022/04/04 11:01:16;;;;;;;11.07;9.90;;;13.30;45.30;;;;;;5074382;28;20565;-66
2022/04/04 11:03:59;;;;;;;10.43;9.52;;;13.70;45.40;;;;;;5074346;28;20299;-67
2022/04/04 11:09:26;;;;;;;8.90;8.10;;;15.20;44.50;;;;;;5073745;28;20270;-66
2022/04/04 11:12:09;;;;;;;8.63;7.93;;;15.30;41.00;;;;;;5073957;28;20589;-67
2022/04/04 11:14:54;;;;;;;9.00;8.10;;;15.00;40.20;;;;;;5073712;28;20754;-66
2022/04/04 11:17:33;;;;;;;8.18;7.47;;;15.20;41.00;;;;;;5073901;28;20206;-67
2022/04/04 11:20:10;;;;;;;9.00;8.30;;;15.90;40.60;;;;;;5073682;28;20227;-67
2022/04/04 11:22:42;;;;;;;8.85;8.05;;;16.10;40.40;;;;;;5073506;28;20209;-68
2022/04/04 11:25:16;;;;;;;7.90;7.30;;;16.10;39.10;;;;;;5073543;28;20203;-67
2022/04/04 11:27:48;;;;;;;9.70;8.80;;;16.50;41.10;;;;;;5073722;28;20699;-67
2022/04/04 11:30:16;;;;;;;8.75;7.95;;;17.00;39.00;;;;;;5073054;28;20458;-67
2022/04/04 11:32:44;;;;;;;8.65;7.95;;;17.20;37.60;;;;;;5073228;28;20241;-68
2022/04/04 11:35:15;;;;;;;7.95;7.35;;;16.80;36.90;;;;;;5073402;28;20235;-66
2022/04/04 11:37:44;;;;;;;8.40;7.70;;;15.90;38.70;;;;;;5073070;28;20268;-67
2022/04/04 11:40:14;;;;;;;8.15;7.50;;;15.80;39.30;;;;;;5072993;28;20229;-67
2022/04/04 11:42:44;;;;;;;8.50;7.80;;;15.60;39.60;;;;;;5073297;28;20210;-67
2022/04/04 11:45:16;;;;;;;9.18;8.38;;;15.20;41.10;;;;;;5072702;28;20199;-67
2022/04/04 11:47:49;;;;;;;8.43;7.63;;;14.90;41.20;;;;;;5073054;28;20213;-67
2022/04/04 11:50:18;;;;;;;8.40;7.60;;;14.20;42.40;;;;;;5072838;28;20229;-67
2022/04/04 11:52:47;;;;;;;8.50;7.80;;;13.80;42.80;;;;;;5073307;28;20205;-67
2022/04/04 11:55:19;;;;;;;9.00;8.10;;;13.20;43.30;;;;;;5073063;28;20202;-66
2022/04/04 11:57:49;;;;;;;8.73;7.93;;;12.60;44.80;;;;;;5072693;28;20257;-66
2022/04/04 12:00:21;;;;;;;8.10;7.40;;;12.00;45.60;;;;;;5073162;28;20219;-66
2022/04/04 12:02:48;;;;;;;8.93;8.13;;;11.50;47.70;;;;;;5073013;28;20249;-66
2022/04/04 12:05:21;;;;;;;9.65;8.68;;;11.20;47.80;;;;;;5072787;28;20209;-66
2022/04/04 12:07:49;;;;;;;8.98;8.18;;;10.80;48.80;;;;;;5072689;28;20207;-66
2022/04/04 12:10:23;;;;;;;9.52;8.65;;;10.40;48.40;;;;;;5072591;28;20258;-66
2022/04/04 12:12:58;;;;;;;9.25;8.35;;;10.10;49.80;;;;;;5072833;28;20248;-67
2022/04/04 12:15:29;;;;;;;8.68;7.65;;;10.10;51.00;;;;;;5072261;28;20202;-68
2022/04/04 12:17:56;;;;;;;7.68;6.97;;;10.00;51.30;;;;;;5072541;28;20210;-67
2022/04/04 12:20:25;;;;;;;8.65;7.07;;;10.00;51.60;;;;;;5072240;28;20595;-67
2022/04/04 12:25:37;;;;;;;9.02;8.13;;;9.80;51.00;;;;;;5072448;28;20501;-68
2022/04/04 12:28:04;;;;;;;9.18;8.27;;;9.70;51.20;;;;;;5072161;28;20210;-67
2022/04/04 12:30:38;;;;;;;8.38;7.68;;;9.70;51.20;;;;;;5072135;28;20333;-68
2022/04/04 12:33:11;;;;;;;8.85;7.95;;;9.90;52.20;;;;;;5071601;28;20206;-66
2022/04/04 12:35:44;;;;;;;8.40;7.60;;;9.90;52.20;;;;;;5072047;28;20199;-67
2022/04/04 12:38:22;;;;;;;10.20;9.20;;;9.90;52.60;;;;;;5072478;28;20256;-66
2022/04/04 12:41:03;;;;;;;8.45;6.72;;;10.10;51.90;;;;;;5072207;28;20222;-67
2022/04/04 12:43:30;;;;;;;8.80;7.95;;;10.10;51.50;;;;;;5071655;28;20210;-67
2022/04/04 12:45:57;;;;;;;9.15;8.25;;;10.10;51.70;;;;;;5072255;28;20199;-66
2022/04/04 12:48:33;;;;;;;9.05;8.15;;;9.90;52.70;;;;;;5072348;28;20198;-67
2022/04/04 12:51:01;;;;;;;8.30;7.53;;;9.90;53.70;;;;;;5072154;28;20226;-67
2022/04/04 12:53:28;;;;;;;9.55;8.65;;;9.70;52.70;;;;;;5071991;28;20732;-67